17:51
Airports
History
Links
Donate
Help keep this website running!
PayPal
Bitcoin
This page is community maintained. The information is intended for PC simulator navigation or reference.
Always use approved charts for navigation.
LIMZ
LEVALDIGI
LEVALDIGI (LIMZ)
Savigliano, Piemonte, Italy (12040)
(U)
Lat/Lng:44° 32' 51.37" N / 7° 37' 23.96" E
44.547603 / 7.623323
Elevation:1267'ft / 386mMSL
ID / ICAO:LIMZ
Runways:1
Longest:03-21
Asphalt 2,108m / 6,917ft
Nearby Weather16:50 GMT 2018-01-18
Nearby weather at LIMG, ALBENGA located 42.4 nautical miles from LIMZ
Altimeter: 29.91
Visibility: 6.2 statute miles
Wind: 3 knots (from VRB°)
Temp: 7°c / 45°f
Humidity: 75.6%

METAR: LIMG 181650Z VRB03KT CAVOK 07/03 Q1013

(Powered by phpweather)
Airport Radio Frequencies
Tower: 119.55
Nearby VORs <50NM
Nearby NDBs
Runway 03 / 21
Dimensions:2108.2 x 45.1m 6917' x 148'ft
Surface:Asphalt
Edge Lights:High intensity
Runway 03 [A]Runway 21 [B]
Heading:032°TH 212°TH
Lat:
Lng:
44° 32' 22.65"N
7° 36' 58.29"E
44° 33' 20.09"N
7° 37' 49.63"E
ALS:Calvert
TDZ:Yes, lighted
User Notes and Comments
44° 32' 51.37" N / 7° 37' 23.96" E
Distance To
Airport ID:
Nearby Airports
(X) Aeroporto Cerrina near Orbassano Torino 31.9 NM
LILT NNW 348°
(C) Torino Aeritalia 37.2 NM
LIMA N 358°
(U) ALBENGA 42.4 NM
LIMG ( WX ) SE 144°
(C) Torino Caselle 45.1 NM
LIMF ( WX ) N
(C) Saint Pons 51.2 NM
LFMR WSW 257°
(C) Saint Crepin 51.5 NM
LFNC W 281°
4 Alessandria 55.7 NM
LILA ENE 62°
VFR Chart
Flight Planning at SkyVector.com